createdAt,value
2018-11-02T00:00:50.233Z,100.0
2018-11-02T00:02:50.452Z,100.0
2018-11-02T00:04:50.118Z,100.0
2018-11-02T00:06:50.511Z,100.0
2018-11-02T00:08:50.794Z,100.0
2018-11-02T00:10:51.006Z,100.0
2018-11-02T00:12:50.227Z,100.0
2018-11-02T00:14:50.428Z,100.0
2018-11-02T00:16:50.857Z,100.0
2018-11-02T00:18:50.130Z,100.0
2018-11-02T00:20:50.393Z,100.0
2018-11-02T00:22:50.755Z,100.0
2018-11-02T00:24:50.004Z,100.0
2018-11-02T00:26:50.435Z,100.0
2018-11-02T00:28:50.621Z,100.0
2018-11-02T00:30:50.871Z,100.0
2018-11-02T00:32:50.215Z,100.0
2018-11-02T00:34:50.813Z,100.0
2018-11-02T00:36:50.281Z,100.0
2018-11-02T00:38:50.472Z,100.0
2018-11-02T00:40:50.722Z,100.0
2018-11-02T00:42:50.923Z,100.0
2018-11-02T00:44:50.171Z,100.0
2018-11-02T00:46:50.520Z,100.0
2018-11-02T00:48:50.773Z,100.0
2018-11-02T00:50:50.339Z,100.0
2018-11-02T00:52:50.843Z,100.0
2018-11-02T00:54:50.139Z,100.0
2018-11-02T00:56:50.477Z,100.0
2018-11-02T00:58:50.780Z,100.0
2018-11-02T01:00:51.601Z,100.0
2018-11-02T01:02:50.090Z,100.0
2018-11-02T01:04:50.593Z,100.0
2018-11-02T01:06:50.018Z,100.0
2018-11-02T01:08:50.200Z,100.0
2018-11-02T01:10:51.822Z,100.0
2018-11-02T01:12:50.306Z,100.0
2018-11-02T01:14:50.511Z,100.0
2018-11-02T01:16:52.273Z,100.0
2018-11-02T01:18:50.600Z,100.0
2018-11-02T01:20:52.476Z,100.0
2018-11-02T01:22:51.007Z,100.0
2018-11-02T01:24:50.187Z,100.0
2018-11-02T01:26:50.509Z,100.0
2018-11-02T01:28:50.772Z,100.0
2018-11-02T01:30:51.375Z,100.0
2018-11-02T01:32:50.731Z,100.0
2018-11-02T01:34:50.156Z,100.0
2018-11-02T01:36:50.747Z,100.0
2018-11-02T01:38:50.999Z,100.0
2018-11-02T01:40:50.795Z,100.0
2018-11-02T01:42:50.022Z,100.0
2018-11-02T01:44:50.225Z,100.0
2018-11-02T01:46:50.630Z,100.0
2018-11-02T01:48:50.741Z,100.0
2018-11-02T01:50:50.127Z,100.0
2018-11-02T01:52:50.309Z,100.0
2018-11-02T01:54:50.435Z,100.0
2018-11-02T01:56:50.894Z,100.0
2018-11-02T01:58:50.156Z,100.0
2018-11-02T02:00:50.320Z,100.0
2018-11-02T02:02:50.529Z,100.0
2018-11-02T02:04:49.990Z,100.0
2018-11-02T02:06:50.364Z,100.0
2018-11-02T02:08:50.552Z,100.0
2018-11-02T02:10:50.772Z,100.0
2018-11-02T02:12:52.345Z,100.0
2018-11-02T02:14:50.974Z,100.0
2018-11-02T02:16:50.606Z,100.0
2018-11-02T02:18:50.963Z,100.0
2018-11-02T02:20:50.183Z,100.0
2018-11-02T02:22:53.353Z,100.0
2018-11-02T02:24:50.872Z,100.0
2018-11-02T02:26:50.485Z,100.0
2018-11-02T02:28:50.646Z,100.0
2018-11-02T02:30:50.935Z,100.0
2018-11-02T02:32:51.727Z,100.0
2018-11-02T02:34:50.631Z,100.0
2018-11-02T02:36:50.271Z,100.0
2018-11-02T02:38:50.477Z,100.0
2018-11-02T02:40:50.619Z,100.0
2018-11-02T02:42:52.239Z,100.0
2018-11-02T02:44:50.562Z,100.0
2018-11-02T02:46:50.053Z,100.0
2018-11-02T02:48:50.269Z,100.0
2018-11-02T02:50:50.502Z,100.0
2018-11-02T02:52:51.428Z,100.0
2018-11-02T02:54:50.749Z,100.0
2018-11-02T02:56:50.276Z,100.0
2018-11-02T02:58:50.570Z,100.0
2018-11-02T03:00:50.928Z,100.0
2018-11-02T03:02:50.693Z,100.0
2018-11-02T03:04:50.327Z,100.0
2018-11-02T03:06:50.792Z,100.0
2018-11-02T03:08:50.659Z,100.0
2018-11-02T03:10:52.608Z,100.0
2018-11-02T03:12:50.916Z,100.0
2018-11-02T03:14:50.159Z,100.0
2018-11-02T03:16:50.518Z,100.0
2018-11-02T03:18:51.883Z,100.0
2018-11-02T03:20:50.263Z,100.0
2018-11-02T03:22:50.482Z,100.0
2018-11-02T03:24:50.748Z,100.0
2018-11-02T03:26:50.310Z,100.0
2018-11-02T03:28:50.512Z,100.0
2018-11-02T03:30:50.748Z,100.0
2018-11-02T03:32:51.010Z,100.0
2018-11-02T03:34:50.620Z,100.0
2018-11-02T03:36:50.135Z,100.0
2018-11-02T03:38:50.369Z,100.0
2018-11-02T03:40:50.580Z,100.0
2018-11-02T03:42:50.965Z,100.0
2018-11-02T03:44:50.250Z,100.0
2018-11-02T03:46:50.723Z,100.0
2018-11-02T03:48:50.993Z,100.0
2018-11-02T03:50:50.214Z,100.0
2018-11-02T03:52:50.485Z,100.0
2018-11-02T03:54:51.364Z,100.0
2018-11-02T03:56:52.465Z,100.0
2018-11-02T03:58:50.746Z,100.0
2018-11-02T04:00:51.028Z,100.0
2018-11-02T04:02:50.278Z,100.0
2018-11-02T04:04:50.120Z,100.0
2018-11-02T04:06:50.593Z,100.0
2018-11-02T04:08:50.935Z,100.0
2018-11-02T04:10:50.323Z,100.0
2018-11-02T04:12:50.642Z,100.0
2018-11-02T04:14:50.930Z,100.0
2018-11-02T04:16:50.533Z,100.0
2018-11-02T04:18:50.779Z,100.0
2018-11-02T04:20:50.073Z,100.0
2018-11-02T04:22:50.447Z,100.0
2018-11-02T04:24:50.565Z,100.0
2018-11-02T04:26:50.981Z,100.0
2018-11-02T04:28:50.155Z,100.0
2018-11-02T04:30:51.159Z,100.0
2018-11-02T04:32:50.388Z,100.0
2018-11-02T04:34:51.301Z,100.0
2018-11-02T04:36:50.136Z,100.0
2018-11-02T04:38:50.329Z,100.0
2018-11-02T04:40:50.617Z,100.0
2018-11-02T04:42:50.999Z,100.0
2018-11-02T04:44:51.624Z,100.0
2018-11-02T04:46:50.457Z,100.0
2018-11-02T04:48:50.779Z,100.0
2018-11-02T04:50:51.320Z,100.0
2018-11-02T04:52:50.636Z,100.0
2018-11-02T04:54:51.913Z,100.0
2018-11-02T04:56:50.331Z,100.0
2018-11-02T04:58:50.536Z,100.0
2018-11-02T05:00:50.714Z,100.0
2018-11-02T05:02:50.130Z,100.0
2018-11-02T05:04:51.368Z,100.0
2018-11-02T05:06:50.655Z,100.0
2018-11-02T05:08:50.900Z,100.0
2018-11-02T05:10:50.237Z,100.0
2018-11-02T05:12:50.540Z,100.0
2018-11-02T05:14:50.744Z,100.0
2018-11-02T05:16:50.110Z,100.0
2018-11-02T05:18:50.215Z,100.0
2018-11-02T05:20:50.363Z,100.0
2018-11-02T05:22:50.392Z,100.0
2018-11-02T05:24:50.469Z,100.0
2018-11-02T05:26:50.115Z,100.0
2018-11-02T05:28:50.157Z,100.0
2018-11-02T05:30:50.385Z,100.0
2018-11-02T05:32:50.647Z,100.0
2018-11-02T05:34:49.816Z,100.0
2018-11-02T05:36:50.112Z,100.0
2018-11-02T05:38:50.145Z,100.0
2018-11-02T05:40:50.151Z,100.0
2018-11-02T05:42:50.135Z,100.0
2018-11-02T05:44:50.160Z,100.0
2018-11-02T05:46:50.389Z,100.0
2018-11-02T05:48:50.456Z,100.0
2018-11-02T05:50:50.525Z,100.0
2018-11-02T05:52:50.525Z,100.0
2018-11-02T05:54:50.552Z,100.0
2018-11-02T05:56:50.759Z,100.0
2018-11-02T05:58:49.811Z,100.0
2018-11-02T06:00:50.003Z,100.0
2018-11-02T06:02:50.028Z,100.0
2018-11-02T06:04:50.401Z,100.0
2018-11-02T06:06:51.381Z,100.0
2018-11-02T06:08:50.725Z,100.0
2018-11-02T06:10:50.813Z,100.0
2018-11-02T06:12:49.936Z,100.0
2018-11-02T06:14:50.020Z,100.0
2018-11-02T06:16:51.717Z,100.0
2018-11-02T06:18:50.102Z,100.0
2018-11-02T06:20:50.168Z,100.0
2018-11-02T06:22:50.163Z,100.0
2018-11-02T06:24:50.233Z,100.0
2018-11-02T06:26:51.069Z,100.0
2018-11-02T06:28:50.494Z,100.0
2018-11-02T06:30:50.632Z,100.0
2018-11-02T06:32:51.402Z,100.0
2018-11-02T06:34:49.886Z,100.0
2018-11-02T06:36:50.425Z,100.0
2018-11-02T06:38:51.282Z,100.0
2018-11-02T06:40:50.412Z,100.0
2018-11-02T06:42:50.450Z,100.0
2018-11-02T06:44:51.583Z,100.0
2018-11-02T06:46:50.135Z,100.0
2018-11-02T06:48:50.501Z,100.0
2018-11-02T06:50:51.444Z,100.0
2018-11-02T06:52:50.586Z,100.0
2018-11-02T07:04:50.612Z,100.0
2018-11-02T07:06:50.778Z,100.0
2018-11-02T07:08:49.843Z,100.0
2018-11-02T07:10:49.876Z,100.0
2018-11-02T07:12:50.056Z,100.0
2018-11-02T07:14:50.103Z,100.0
2018-11-02T07:16:50.292Z,100.0
2018-11-02T07:18:51.550Z,100.0
2018-11-02T07:20:49.878Z,100.0
2018-11-02T07:22:49.892Z,100.0
2018-11-02T07:24:50.189Z,100.0
2018-11-02T07:26:50.377Z,100.0
2018-11-02T07:28:51.302Z,100.0
2018-11-02T07:30:50.434Z,100.0
2018-11-02T07:32:50.449Z,100.0
2018-11-02T07:34:49.924Z,100.0
2018-11-02T07:36:50.296Z,100.0
2018-11-02T07:38:50.416Z,100.0
2018-11-02T07:40:50.599Z,100.0
2018-11-02T07:42:50.605Z,100.0
2018-11-02T07:44:50.932Z,100.0
2018-11-02T07:46:50.352Z,100.0
2018-11-02T07:48:50.581Z,100.0
2018-11-02T07:50:50.670Z,100.0
2018-11-02T07:52:50.733Z,100.0
2018-11-02T07:54:50.456Z,100.0
2018-11-02T07:56:50.939Z,100.0
2018-11-02T07:58:50.232Z,100.0
2018-11-02T08:00:50.546Z,100.0
2018-11-02T08:04:50.897Z,100.0
2018-11-02T08:06:50.322Z,100.0
2018-11-02T08:08:50.382Z,100.0
2018-11-02T08:10:50.463Z,100.0
2018-11-02T08:12:50.511Z,100.0
2018-11-02T08:14:50.520Z,100.0
2018-11-02T08:16:49.901Z,100.0
2018-11-02T08:18:50.149Z,100.0
2018-11-02T08:20:50.260Z,100.0
2018-11-02T08:22:50.233Z,100.0
2018-11-02T08:24:50.304Z,100.0
2018-11-02T08:26:50.550Z,100.0
2018-11-02T08:28:50.729Z,100.0
2018-11-02T08:30:50.022Z,100.0
2018-11-02T08:32:50.224Z,100.0
2018-11-02T08:34:50.684Z,100.0
2018-11-02T08:36:50.048Z,100.0
2018-11-02T08:38:50.077Z,100.0
2018-11-02T08:40:50.254Z,100.0
2018-11-02T08:42:50.494Z,100.0
2018-11-02T08:44:50.675Z,100.0
2018-11-02T08:46:50.091Z,100.0
2018-11-02T08:48:50.366Z,100.0
2018-11-02T08:50:50.579Z,100.0
2018-11-02T08:52:50.769Z,100.0
2018-11-02T08:54:49.788Z,100.0
2018-11-02T08:56:50.004Z,100.0
2018-11-02T08:58:51.773Z,100.0
2018-11-02T09:00:50.199Z,100.0
2018-11-02T09:02:50.701Z,100.0
2018-11-02T09:04:50.831Z,100.0
2018-11-02T09:06:50.241Z,100.0
2018-11-02T09:08:50.399Z,100.0
2018-11-02T09:10:50.431Z,98.9
2018-11-02T09:12:50.432Z,100.0
2018-11-02T09:14:50.503Z,100.0
2018-11-02T09:16:50.666Z,99.2
2018-11-02T09:18:50.757Z,99.4
2018-11-02T09:20:50.782Z,99.7
2018-11-02T09:22:49.897Z,100.0
2018-11-02T09:24:49.931Z,98.0
2018-11-02T09:26:50.269Z,95.4
2018-11-02T09:28:50.382Z,95.4
2018-11-02T09:30:50.477Z,94.0
2018-11-02T09:32:50.533Z,96.0
2018-11-02T09:34:50.157Z,81
2018-11-02T09:36:50.599Z,80
2018-11-02T09:38:50.831Z,80
2018-11-02T09:40:50.189Z,80
2018-11-02T09:42:52.224Z,80
2018-11-02T09:44:50.684Z,80
2018-11-02T09:46:50.275Z,80
2018-11-02T09:48:50.579Z,80
2018-11-02T09:50:50.853Z,80
2018-11-02T09:52:50.150Z,80
2018-11-02T09:54:50.420Z,80
2018-11-02T09:56:50.892Z,80
2018-11-02T09:58:50.208Z,80
2018-11-02T10:00:50.708Z,80
2018-11-02T10:02:50.911Z,79
2018-11-02T10:04:50.655Z,79
2018-11-02T10:06:50.176Z,79
2018-11-02T10:08:50.414Z,78
2018-11-02T10:10:50.765Z,78
2018-11-02T10:12:50.013Z,78
2018-11-02T10:14:50.295Z,78
2018-11-02T10:16:50.659Z,78
2018-11-02T10:18:50.982Z,78
2018-11-02T10:20:50.209Z,77
2018-11-02T10:22:50.507Z,77
2018-11-02T10:24:50.675Z,76
2018-11-02T10:26:50.280Z,76
2018-11-02T10:28:50.536Z,76
2018-11-02T10:30:50.890Z,76
2018-11-02T10:32:50.221Z,76
2018-11-02T10:34:50.891Z,76
2018-11-02T10:36:50.412Z,76
2018-11-02T10:38:50.675Z,76
2018-11-02T10:40:50.960Z,76
2018-11-02T10:42:50.180Z,76
2018-11-02T10:44:51.293Z,76
2018-11-02T10:46:50.793Z,76
2018-11-02T10:48:50.014Z,75
2018-11-02T10:50:50.284Z,75
2018-11-02T10:52:50.641Z,75
2018-11-02T10:54:50.871Z,75
2018-11-02T10:56:50.336Z,75
2018-11-02T10:58:50.585Z,74
2018-11-02T11:00:52.623Z,74
2018-11-02T11:02:51.010Z,74
2018-11-02T11:04:50.590Z,74
2018-11-02T11:06:50.078Z,74
2018-11-02T11:08:50.432Z,73
2018-11-02T11:10:50.694Z,72
2018-11-02T11:12:54.119Z,72
2018-11-02T11:14:50.507Z,71
2018-11-02T11:16:50.052Z,71
2018-11-02T11:18:50.404Z,71
2018-11-02T11:20:50.746Z,72
2018-11-02T11:22:50.139Z,71
2018-11-02T11:24:50.505Z,70
2018-11-02T11:26:50.898Z,70
2018-11-02T11:28:50.786Z,70
2018-11-02T11:30:50.172Z,70
2018-11-02T11:32:50.543Z,70
2018-11-02T11:34:50.194Z,70
2018-11-02T11:36:51.216Z,70
2018-11-02T11:38:51.658Z,70
2018-11-02T11:40:50.947Z,69
2018-11-02T11:42:50.382Z,70
2018-11-02T11:44:50.678Z,70
2018-11-02T11:46:50.271Z,70
2018-11-02T11:48:52.614Z,70
2018-11-02T11:50:50.975Z,70
2018-11-02T11:52:50.401Z,68
2018-11-02T11:54:50.623Z,68
2018-11-02T11:56:50.280Z,69
2018-11-02T11:58:51.862Z,68
2018-11-02T12:00:50.273Z,68
2018-11-02T12:02:50.515Z,68
2018-11-02T12:04:51.083Z,68
2018-11-02T12:06:50.600Z,68
2018-11-02T12:08:51.845Z,68
2018-11-02T12:10:50.239Z,68
2018-11-02T12:12:50.577Z,68
2018-11-02T12:14:50.942Z,68
2018-11-02T12:16:50.394Z,67
2018-11-02T12:18:51.259Z,68
2018-11-02T12:20:50.442Z,67
2018-11-02T12:22:50.842Z,67
2018-11-02T12:24:50.155Z,67
2018-11-02T12:26:50.563Z,67
2018-11-02T12:28:51.671Z,67
2018-11-02T12:30:50.388Z,67
2018-11-02T12:32:50.654Z,67
2018-11-02T12:34:50.631Z,66
2018-11-02T12:36:51.144Z,66
2018-11-02T12:38:50.683Z,66
2018-11-02T12:40:50.044Z,66
2018-11-02T12:42:50.833Z,66
2018-11-02T12:44:50.235Z,66
2018-11-02T12:46:50.618Z,66
2018-11-02T12:48:53.617Z,66
2018-11-02T12:50:50.080Z,66
2018-11-02T12:52:50.356Z,66
2018-11-02T12:54:50.663Z,66
2018-11-02T12:56:50.223Z,66
2018-11-02T12:58:50.516Z,66
2018-11-02T13:00:50.816Z,66
2018-11-02T13:02:50.090Z,66
2018-11-02T13:04:50.648Z,66
2018-11-02T13:06:50.181Z,66
2018-11-02T13:08:50.394Z,66
2018-11-02T13:10:50.626Z,66
2018-11-02T13:12:50.105Z,65
2018-11-02T13:14:50.399Z,64
2018-11-02T13:16:50.822Z,64
2018-11-02T13:18:50.827Z,63.3
2018-11-02T13:20:50.250Z,62.9
2018-11-02T13:22:50.606Z,63.6
2018-11-02T13:24:51.016Z,63.0
2018-11-02T13:26:50.539Z,63.0
2018-11-02T13:28:50.206Z,63.0
2018-11-02T13:30:53.524Z,61.3
2018-11-02T13:32:51.057Z,61.3
2018-11-02T13:34:50.500Z,60.5
2018-11-02T13:36:51.895Z,63
2018-11-02T13:38:50.275Z,63
2018-11-02T13:40:51.977Z,63
2018-11-02T13:42:51.081Z,60.5
2018-11-02T13:44:50.386Z,60.5
2018-11-02T13:46:50.921Z,62
2018-11-02T13:48:50.164Z,62
2018-11-02T13:50:51.592Z,62
2018-11-02T13:52:51.071Z,62
2018-11-02T13:54:50.781Z,62
2018-11-02T13:56:50.408Z,62
2018-11-02T13:58:50.794Z,61.4
2018-11-02T14:00:50.578Z,61.6
2018-11-02T14:02:50.899Z,63.6
2018-11-02T14:04:50.831Z,64.6
2018-11-02T14:06:50.348Z,65.1
2018-11-02T14:08:50.566Z,64.9
2018-11-02T14:10:50.848Z,66.0
2018-11-02T14:12:50.186Z,66.1
2018-11-02T14:14:50.395Z,66.8
2018-11-02T14:16:50.899Z,67.7
2018-11-02T14:18:50.207Z,68.9
2018-11-02T14:20:50.502Z,68.2
2018-11-02T14:22:50.837Z,68.3
2018-11-02T14:24:50.257Z,68.8
2018-11-02T14:26:50.789Z,69.9
2018-11-02T14:28:50.294Z,69.8
2018-11-02T14:30:50.630Z,70.3
2018-11-02T14:32:51.003Z,71.9
2018-11-02T14:34:50.604Z,70.2
2018-11-02T14:36:50.048Z,73.3
2018-11-02T14:38:50.312Z,70.7
2018-11-02T14:40:51.219Z,71.5
2018-11-02T14:42:50.580Z,72.5
2018-11-02T14:44:50.780Z,71.4
2018-11-02T14:46:50.278Z,71.1
2018-11-02T14:48:50.474Z,70.9
2018-11-02T14:50:50.653Z,72.1
2018-11-02T14:52:51.008Z,72.1
2018-11-02T14:54:50.341Z,71.7
2018-11-02T14:56:50.641Z,72.0
2018-11-02T14:58:51.000Z,72.8
2018-11-02T15:00:50.882Z,72.9
2018-11-02T15:02:50.484Z,73.3
2018-11-02T15:04:50.110Z,74.1
2018-11-02T15:06:50.504Z,72.8
2018-11-02T15:08:50.733Z,73.8
2018-11-02T15:10:50.828Z,73.1
2018-11-02T15:12:50.373Z,74.4
2018-11-02T15:14:50.862Z,74.4
2018-11-02T15:16:50.420Z,75.3
2018-11-02T15:18:50.647Z,73.8
2018-11-02T15:20:51.708Z,73.8
2018-11-02T15:22:50.463Z,73.6
2018-11-02T15:24:50.820Z,74.0
2018-11-02T15:26:50.296Z,74.4
2018-11-02T15:28:50.681Z,74.3
2018-11-02T15:30:51.681Z,74.6
2018-11-02T15:32:50.186Z,74.7
2018-11-02T15:34:50.245Z,75.7
2018-11-02T15:36:50.835Z,76.5
2018-11-02T15:38:50.178Z,76.5
2018-11-02T15:40:51.664Z,76.8
2018-11-02T15:42:50.186Z,76.7
2018-11-02T15:44:51.305Z,77.4
2018-11-02T15:46:50.746Z,77.0
2018-11-02T15:48:50.959Z,76.9
2018-11-02T15:50:51.592Z,76.9
2018-11-02T15:52:50.188Z,77.4
2018-11-02T15:54:50.527Z,77.5
2018-11-02T15:56:50.906Z,77.4
2018-11-02T15:58:50.271Z,77.6
2018-11-02T16:00:50.509Z,78.1
2018-11-02T16:02:50.869Z,78.2
2018-11-02T16:04:50.452Z,78.4
2018-11-02T16:06:51.656Z,78.8
2018-11-02T16:08:50.941Z,78.9
2018-11-02T16:10:50.186Z,79.6
2018-11-02T16:12:50.598Z,80.0
2018-11-02T16:14:50.819Z,80.0
2018-11-02T16:16:50.338Z,80.9
2018-11-02T16:18:50.521Z,81.2
2018-11-02T16:20:50.765Z,81.3
2018-11-02T16:22:50.974Z,82.6
2018-11-02T16:24:50.256Z,82.6
2018-11-02T16:26:50.741Z,82.9
2018-11-02T16:28:50.062Z,85.0
2018-11-02T16:30:50.287Z,86.4
2018-11-02T16:32:50.602Z,86.6
2018-11-02T16:34:50.310Z,86.0
2018-11-02T16:36:50.742Z,84.7
2018-11-02T16:38:50.018Z,84.1
2018-11-02T16:40:50.308Z,84.3
2018-11-02T16:42:50.598Z,86.0
2018-11-02T16:44:52.126Z,85.7
2018-11-02T16:46:50.621Z,85.6
2018-11-02T16:48:50.803Z,87.2
2018-11-02T16:50:50.019Z,86.0
2018-11-02T16:52:50.187Z,86.0
2018-11-02T16:54:50.436Z,87.1
2018-11-02T16:56:50.906Z,87.1
2018-11-02T16:58:50.265Z,86.8
2018-11-02T17:00:50.489Z,86.3
2018-11-02T17:02:50.793Z,88.2
2018-11-02T17:04:50.748Z,88.1
2018-11-02T17:06:50.263Z,88.8
2018-11-02T17:08:50.527Z,88.9
2018-11-02T17:10:50.722Z,90.4
2018-11-02T17:12:50.081Z,90.5
2018-11-02T17:14:50.262Z,90.4
2018-11-02T17:16:50.670Z,89.9
2018-11-02T17:18:50.795Z,90.8
2018-11-02T17:20:50.033Z,90.1
2018-11-02T17:22:50.294Z,90.4
2018-11-02T17:24:50.524Z,89.9
2018-11-02T17:26:50.978Z,90.3
2018-11-02T17:28:50.408Z,91.1
2018-11-02T17:30:50.745Z,91.6
2018-11-02T17:32:50.021Z,91.2
2018-11-02T17:34:50.451Z,91.2
2018-11-02T17:36:50.836Z,90.5
2018-11-02T17:38:50.542Z,89.9
2018-11-02T17:40:50.949Z,90.1
2018-11-02T17:42:50.224Z,91.3
2018-11-02T17:44:50.595Z,90.8
2018-11-02T17:46:51.059Z,90.8
2018-11-02T17:48:50.909Z,89.3
2018-11-02T17:50:50.283Z,89.3
2018-11-02T17:52:50.523Z,89.1
2018-11-02T17:54:50.792Z,89.0
2018-11-02T17:56:50.300Z,91.7
2018-11-02T17:58:50.813Z,91.7
2018-11-02T18:00:50.073Z,92.1
2018-11-02T18:02:50.393Z,92.4
2018-11-02T18:04:50.156Z,93.4
2018-11-02T18:06:50.574Z,93.5
2018-11-02T18:08:51.111Z,92.9
2018-11-02T18:10:50.382Z,92.7
2018-11-02T18:12:50.651Z,92.0
2018-11-02T18:14:50.868Z,92.3
2018-11-02T18:16:50.376Z,91.4
2018-11-02T18:18:51.623Z,90.2
2018-11-02T18:20:50.978Z,90.6
2018-11-02T18:22:50.229Z,92.0
2018-11-02T18:24:50.507Z,91.8
2018-11-02T18:26:50.903Z,91.6
2018-11-02T18:28:50.616Z,91.2
2018-11-02T18:30:50.769Z,90.7
2018-11-02T18:32:50.039Z,91.0
2018-11-02T18:34:51.677Z,90.7
2018-11-02T18:36:50.358Z,90.3
2018-11-02T18:38:51.019Z,89.6
2018-11-02T18:40:50.207Z,89.6
2018-11-02T18:42:50.453Z,89.6
2018-11-02T18:44:50.720Z,91.6
2018-11-02T18:46:50.238Z,91.5
2018-11-02T18:48:51.301Z,90.7
2018-11-02T18:50:50.636Z,91.2
2018-11-02T18:52:50.864Z,89.4
2018-11-02T18:54:50.131Z,89.9
2018-11-02T18:56:50.575Z,89.6
2018-11-02T18:58:51.804Z,89.8
2018-11-02T19:00:50.244Z,89.8
2018-11-02T19:02:50.433Z,89.7
2018-11-02T19:04:50.032Z,89.4
2018-11-02T19:06:50.434Z,89.3
2018-11-02T19:08:51.704Z,89.6
2018-11-02T19:10:50.296Z,90.8
2018-11-02T19:12:50.556Z,90.2
2018-11-02T19:14:50.600Z,89.7
2018-11-02T19:16:49.950Z,89.3
2018-11-02T19:18:50.820Z,89.3
2018-11-02T19:20:50.049Z,89.3
2018-11-02T19:22:50.027Z,89.5
2018-11-02T19:24:50.041Z,89.6
2018-11-02T19:26:50.621Z,90.1
2018-11-02T19:28:51.798Z,91.3
2018-11-02T19:30:50.051Z,91.3
2018-11-02T19:32:50.924Z,89.9
2018-11-02T19:34:53.640Z,89.9
2018-11-02T19:36:50.260Z,90.4
2018-11-02T19:38:51.654Z,90.4
2018-11-02T19:40:50.192Z,89.9
2018-11-02T19:42:50.518Z,89.9
2018-11-02T19:44:50.889Z,89.8
2018-11-02T19:46:50.284Z,89.6
2018-11-02T19:48:52.549Z,89.7
2018-11-02T19:50:51.458Z,89.7
2018-11-02T19:52:50.794Z,89.8
2018-11-02T19:54:50.100Z,89.9
2018-11-02T19:56:50.482Z,90.3
2018-11-02T19:58:52.288Z,90.6
2018-11-02T20:00:51.211Z,91.2
2018-11-02T20:02:50.554Z,92.3
2018-11-02T20:04:50.088Z,91.9
2018-11-02T20:06:50.523Z,90.8
2018-11-02T20:08:52.630Z,90.5
2018-11-02T20:10:50.121Z,90.5
2018-11-02T20:12:50.381Z,90.4
2018-11-02T20:14:50.619Z,90.6
2018-11-02T20:16:50.032Z,91.6
2018-11-02T20:18:52.304Z,92.0
2018-11-02T20:20:50.651Z,92.1
2018-11-02T20:22:50.850Z,91.7
2018-11-02T20:24:50.126Z,91.7
2018-11-02T20:26:50.575Z,91.5
2018-11-02T20:28:51.948Z,91.3
2018-11-02T20:30:50.299Z,91.3
2018-11-02T20:32:50.468Z,91.4
2018-11-02T20:34:50.072Z,91.6
2018-11-02T20:36:50.500Z,91.6
2018-11-02T20:38:52.284Z,91.8
2018-11-02T20:40:50.662Z,91.9
2018-11-02T20:42:50.921Z,91.4
2018-11-02T20:44:50.323Z,91.2
2018-11-02T20:46:50.776Z,91.3
2018-11-02T20:48:51.865Z,91.0
2018-11-02T20:50:50.224Z,91.2
2018-11-02T20:52:50.521Z,91.2
2018-11-02T20:54:50.743Z,91.2
2018-11-02T20:56:50.301Z,91.5
2018-11-02T20:58:51.495Z,91.5
2018-11-02T21:00:50.680Z,91.6
2018-11-02T21:02:52.182Z,91.6
2018-11-02T21:04:50.803Z,91.5
2018-11-02T21:06:50.359Z,91.5
2018-11-02T21:08:52.582Z,91.8
2018-11-02T21:10:50.937Z,91.9
2018-11-02T21:12:50.417Z,91.9
2018-11-02T21:14:52.193Z,92.2
2018-11-02T21:16:50.717Z,92.5
2018-11-02T21:18:50.922Z,92.2
2018-11-02T21:20:52.097Z,92.3
2018-11-02T21:22:50.476Z,92.4
2018-11-02T21:24:50.659Z,92.6
2018-11-02T21:26:50.057Z,92.7
2018-11-02T21:28:52.492Z,93.2
2018-11-02T21:30:50.824Z,93.2
2018-11-02T21:32:50.157Z,93.7
2018-11-02T21:34:50.630Z,93.6
2018-11-02T21:36:50.125Z,93.8
2018-11-02T21:38:52.606Z,94.1
2018-11-02T21:40:50.320Z,94.2
2018-11-02T21:42:50.630Z,94.2
2018-11-02T21:44:50.965Z,94.5
2018-11-02T21:46:50.527Z,94.4
2018-11-02T21:48:50.773Z,94.9
2018-11-02T21:50:50.192Z,94.6
2018-11-02T21:52:50.667Z,94.4
2018-11-02T21:54:51.002Z,94.4
2018-11-02T21:56:50.491Z,94.4
2018-11-02T21:58:50.773Z,94.4
2018-11-02T22:00:50.112Z,94.5
2018-11-02T22:02:50.374Z,94.6
2018-11-02T22:04:50.078Z,94.6
2018-11-02T22:06:50.455Z,94.7
2018-11-02T22:08:50.649Z,94.7
2018-11-02T22:10:50.952Z,94.7
2018-11-02T22:12:50.292Z,94.8
2018-11-02T22:14:50.487Z,95.0
2018-11-02T22:16:50.853Z,95.2
2018-11-02T22:18:50.472Z,95.2
2018-11-02T22:20:50.523Z,95.4
2018-11-02T22:22:50.650Z,95.0
2018-11-02T22:24:50.796Z,94.9
2018-11-02T22:26:50.031Z,94.6
2018-11-02T22:28:50.653Z,94.8
2018-11-02T22:30:51.172Z,94.9
2018-11-02T22:32:50.403Z,94.8
2018-11-02T22:34:50.015Z,94.8
2018-11-02T22:36:50.398Z,94.5
2018-11-02T22:38:50.770Z,94.7
2018-11-02T22:40:50.029Z,95.4
2018-11-02T22:42:50.330Z,95.6
2018-11-02T22:44:50.678Z,96.1
2018-11-02T22:46:50.806Z,96.1
2018-11-02T22:48:50.045Z,95.6
2018-11-02T22:50:50.379Z,95.9
2018-11-02T22:52:50.640Z,97.0
2018-11-02T22:54:50.866Z,97.4
2018-11-02T22:56:51.369Z,97.0
2018-11-02T22:58:50.694Z,95.1
2018-11-02T23:00:50.971Z,94.5
2018-11-02T23:02:50.323Z,94.4
2018-11-02T23:04:50.881Z,94.5
2018-11-02T23:06:51.943Z,94.6
2018-11-02T23:08:51.610Z,94.8
2018-11-02T23:10:50.936Z,95.0
2018-11-02T23:12:50.388Z,95.0
2018-11-02T23:14:50.612Z,94.6
2018-11-02T23:16:50.093Z,95.0
2018-11-02T23:18:50.277Z,95.2
2018-11-02T23:20:50.581Z,95.0
2018-11-02T23:22:50.763Z,95.1
2018-11-02T23:24:50.069Z,95.1
2018-11-02T23:26:50.435Z,94.8
2018-11-02T23:28:50.690Z,94.9
2018-11-02T23:30:50.963Z,94.9
2018-11-02T23:32:50.243Z,94.9
2018-11-02T23:34:50.878Z,95.4
2018-11-02T23:36:50.337Z,95.2
2018-11-02T23:38:50.573Z,95.2
2018-11-02T23:40:50.756Z,95.2
2018-11-02T23:42:50.973Z,95.2
2018-11-02T23:44:51.980Z,95.2
2018-11-02T23:46:50.496Z,95.2
2018-11-02T23:48:50.678Z,95.4
2018-11-02T23:50:50.962Z,96.1
2018-11-02T23:52:50.182Z,96.1
2018-11-02T23:54:52.155Z,96.4
2018-11-02T23:56:50.704Z,96.7
2018-11-02T23:58:50.937Z,96.6
